createdAt,value
2023-03-25T00:00:08.000Z,0
2023-03-25T00:01:24.000Z,0
2023-03-25T00:02:40.000Z,0
2023-03-25T00:03:57.000Z,0
2023-03-25T00:05:13.000Z,0
2023-03-25T00:06:29.000Z,0
2023-03-25T00:07:45.000Z,0
2023-03-25T00:09:01.000Z,0
2023-03-25T00:10:18.000Z,0
2023-03-25T00:11:34.000Z,0
2023-03-25T00:12:50.000Z,0
2023-03-25T00:14:06.000Z,0
2023-03-25T00:15:22.000Z,0
2023-03-25T00:16:37.000Z,0
2023-03-25T00:17:54.000Z,0
2023-03-25T00:19:10.000Z,0
2023-03-25T00:20:26.000Z,0
2023-03-25T00:21:41.000Z,0
2023-03-25T00:22:57.000Z,0
2023-03-25T00:24:14.000Z,0
2023-03-25T00:25:30.000Z,0
2023-03-25T00:26:46.000Z,0
2023-03-25T00:28:02.000Z,0
2023-03-25T00:29:18.000Z,0
2023-03-25T00:30:35.000Z,0
2023-03-25T00:31:51.000Z,0
2023-03-25T00:33:07.000Z,0
2023-03-25T00:34:23.000Z,0
2023-03-25T00:35:39.000Z,0
2023-03-25T00:36:56.000Z,0
2023-03-25T00:38:11.000Z,0
2023-03-25T00:39:27.000Z,0
2023-03-25T00:40:43.000Z,0
2023-03-25T00:41:59.000Z,0
2023-03-25T00:43:16.000Z,0
2023-03-25T00:44:32.000Z,0
2023-03-25T00:45:48.000Z,0
2023-03-25T00:47:04.000Z,0
2023-03-25T00:48:20.000Z,0
2023-03-25T00:49:36.000Z,0
2023-03-25T00:50:53.000Z,0
2023-03-25T00:52:09.000Z,0
2023-03-25T00:53:25.000Z,0
2023-03-25T00:54:40.000Z,0
2023-03-25T00:55:56.000Z,0
2023-03-25T00:57:13.000Z,0
2023-03-25T00:58:29.000Z,0
2023-03-25T00:59:45.000Z,0
2023-03-25T01:01:01.000Z,0
2023-03-25T01:02:17.000Z,0
2023-03-25T01:03:34.000Z,0
2023-03-25T01:04:50.000Z,0
2023-03-25T01:06:06.000Z,0
2023-03-25T01:07:22.000Z,0
2023-03-25T01:08:38.000Z,0
2023-03-25T01:09:55.000Z,0
2023-03-25T01:11:10.000Z,0
2023-03-25T01:12:26.000Z,0
2023-03-25T01:13:42.000Z,0
2023-03-25T01:14:58.000Z,0
2023-03-25T01:16:15.000Z,0
2023-03-25T01:17:31.000Z,0
2023-03-25T01:18:47.000Z,0
2023-03-25T01:20:03.000Z,0
2023-03-25T01:21:19.000Z,0
2023-03-25T01:22:35.000Z,0
2023-03-25T01:23:52.000Z,0
2023-03-25T01:25:08.000Z,0
2023-03-25T01:26:24.000Z,0
2023-03-25T01:27:39.000Z,0
2023-03-25T01:28:55.000Z,0
2023-03-25T01:30:12.000Z,0
2023-03-25T01:31:28.000Z,0
2023-03-25T01:32:44.000Z,0
2023-03-25T01:34:00.000Z,0
2023-03-25T01:35:16.000Z,0
2023-03-25T01:36:33.000Z,0
2023-03-25T01:37:49.000Z,0
2023-03-25T01:39:05.000Z,0
2023-03-25T01:40:21.000Z,0
2023-03-25T01:41:37.000Z,0
2023-03-25T01:42:54.000Z,0
2023-03-25T01:44:09.000Z,0
2023-03-25T01:45:25.000Z,0
2023-03-25T01:46:41.000Z,0
2023-03-25T01:47:57.000Z,0
2023-03-25T01:49:13.000Z,0
2023-03-25T01:50:30.000Z,0
2023-03-25T01:51:46.000Z,0
2023-03-25T01:53:02.000Z,0
2023-03-25T01:54:18.000Z,0
2023-03-25T01:55:34.000Z,0
2023-03-25T01:56:51.000Z,0
2023-03-25T01:58:07.000Z,0
2023-03-25T01:59:23.000Z,0
2023-03-25T02:00:38.000Z,0
2023-03-25T02:01:54.000Z,0
2023-03-25T02:03:11.000Z,0
2023-03-25T02:04:27.000Z,0
2023-03-25T02:05:43.000Z,0
2023-03-25T02:06:59.000Z,0
2023-03-25T02:08:15.000Z,0
2023-03-25T02:09:32.000Z,0
2023-03-25T02:10:48.000Z,0
2023-03-25T02:12:04.000Z,0
2023-03-25T02:13:20.000Z,0
2023-03-25T02:14:36.000Z,0
2023-03-25T02:15:53.000Z,0
2023-03-25T02:17:08.000Z,0
2023-03-25T02:18:24.000Z,0
2023-03-25T02:19:40.000Z,0
2023-03-25T02:20:56.000Z,0
2023-03-25T02:22:12.000Z,0
2023-03-25T02:23:29.000Z,0
2023-03-25T02:24:45.000Z,0
2023-03-25T02:26:01.000Z,0
2023-03-25T02:27:17.000Z,0
2023-03-25T02:28:33.000Z,0
2023-03-25T02:29:50.115Z,0
2023-03-25T02:31:06.000Z,0
2023-03-25T02:32:22.000Z,0
2023-03-25T02:33:37.000Z,0
2023-03-25T02:34:53.000Z,0
2023-03-25T02:36:10.000Z,0
2023-03-25T02:37:26.000Z,0
2023-03-25T02:38:42.000Z,0
2023-03-25T02:39:58.000Z,0
2023-03-25T02:41:14.000Z,0
2023-03-25T02:42:31.000Z,0
2023-03-25T02:43:47.000Z,0
2023-03-25T02:45:03.000Z,0
2023-03-25T02:46:19.000Z,0
2023-03-25T02:47:35.000Z,0
2023-03-25T02:48:51.000Z,0
2023-03-25T02:50:07.000Z,0
2023-03-25T02:51:23.000Z,0
2023-03-25T02:52:39.000Z,0
2023-03-25T02:53:55.000Z,0
2023-03-25T02:55:11.000Z,0
2023-03-25T02:56:28.000Z,0
2023-03-25T02:57:44.000Z,0
2023-03-25T02:59:00.000Z,0
2023-03-25T03:00:16.000Z,0
2023-03-25T03:01:32.000Z,0
2023-03-25T03:02:49.000Z,0
2023-03-25T03:04:05.000Z,0
2023-03-25T03:05:21.000Z,0
2023-03-25T03:06:36.000Z,0
2023-03-25T03:07:52.000Z,0
2023-03-25T03:09:09.000Z,0
2023-03-25T03:10:25.000Z,0
2023-03-25T03:11:41.000Z,0
2023-03-25T03:12:57.000Z,0
2023-03-25T03:14:13.000Z,0
2023-03-25T03:15:29.000Z,0
2023-03-25T03:16:46.000Z,0
2023-03-25T03:18:02.000Z,0
2023-03-25T03:19:18.000Z,0
2023-03-25T03:20:34.000Z,0
2023-03-25T03:21:50.000Z,0
2023-03-25T03:23:06.000Z,0
2023-03-25T03:24:22.000Z,0
2023-03-25T03:25:38.000Z,0
2023-03-25T03:26:54.000Z,0
2023-03-25T03:28:10.000Z,0
2023-03-25T03:29:27.000Z,0
2023-03-25T03:30:43.000Z,0
2023-03-25T03:31:59.000Z,0
2023-03-25T03:33:15.000Z,0
2023-03-25T03:34:31.000Z,0
2023-03-25T03:35:48.000Z,0
2023-03-25T03:37:04.000Z,0
2023-03-25T03:38:20.000Z,0
2023-03-25T03:39:35.000Z,0
2023-03-25T03:40:51.000Z,0
2023-03-25T03:42:07.000Z,0
2023-03-25T03:43:24.000Z,0
2023-03-25T03:44:40.000Z,0
2023-03-25T03:45:56.000Z,0
2023-03-25T03:47:12.000Z,0
2023-03-25T03:48:28.000Z,0
2023-03-25T03:49:45.000Z,0
2023-03-25T03:51:01.000Z,0
2023-03-25T03:52:17.000Z,0
2023-03-25T03:54:49.000Z,0
2023-03-25T03:56:05.000Z,0
2023-03-25T03:57:21.000Z,0
2023-03-25T03:58:37.000Z,0
2023-03-25T03:59:53.000Z,0
2023-03-25T04:01:09.000Z,0
2023-03-25T04:02:26.000Z,0
2023-03-25T04:03:42.000Z,0
2023-03-25T04:04:58.000Z,0
2023-03-25T04:06:14.000Z,0
2023-03-25T04:07:30.000Z,0
2023-03-25T04:08:46.000Z,0
2023-03-25T04:10:03.000Z,0
2023-03-25T04:11:19.000Z,0
2023-03-25T04:12:34.000Z,0
2023-03-25T04:13:50.000Z,0
2023-03-25T04:15:06.000Z,0
2023-03-25T04:16:23.000Z,0
2023-03-25T04:17:39.000Z,0
2023-03-25T04:18:55.000Z,0
2023-03-25T04:20:11.000Z,0
2023-03-25T04:21:27.000Z,0
2023-03-25T04:22:44.000Z,0
2023-03-25T04:24:00.000Z,0
2023-03-25T04:25:16.000Z,0
2023-03-25T04:26:32.000Z,0
2023-03-25T04:27:48.000Z,0
2023-03-25T04:29:04.000Z,0
2023-03-25T04:30:20.000Z,0
2023-03-25T04:31:36.000Z,0
2023-03-25T04:32:52.000Z,0
2023-03-25T04:34:08.000Z,0
2023-03-25T04:35:24.000Z,0
2023-03-25T04:36:40.000Z,0
2023-03-25T04:37:56.000Z,0
2023-03-25T04:39:12.000Z,0
2023-03-25T04:40:28.000Z,0
2023-03-25T04:41:44.000Z,0
2023-03-25T04:43:01.000Z,0
2023-03-25T04:44:17.000Z,0
2023-03-25T04:45:33.000Z,0
2023-03-25T04:46:49.000Z,0
2023-03-25T04:48:05.000Z,0
2023-03-25T04:49:22.000Z,0
2023-03-25T04:50:38.000Z,0
2023-03-25T04:51:54.000Z,0
2023-03-25T04:53:09.000Z,4
2023-03-25T04:54:25.000Z,4
2023-03-25T04:55:42.000Z,4
2023-03-25T04:56:58.000Z,4
2023-03-25T04:58:14.000Z,4
2023-03-25T04:59:30.000Z,4
2023-03-25T05:00:46.000Z,4
2023-03-25T05:02:02.000Z,8
2023-03-25T05:03:19.000Z,8
2023-03-25T05:04:35.000Z,8
2023-03-25T05:05:51.000Z,8
2023-03-25T05:07:07.000Z,12
2023-03-25T05:08:23.000Z,12
2023-03-25T05:09:39.000Z,20
2023-03-25T05:10:55.000Z,20
2023-03-25T05:12:11.000Z,20
2023-03-25T05:13:27.000Z,32
2023-03-25T05:14:43.000Z,36
2023-03-25T05:16:00.000Z,40
2023-03-25T05:17:16.000Z,56
2023-03-25T05:18:32.000Z,72
2023-03-25T05:19:48.000Z,80
2023-03-25T05:21:04.000Z,92
2023-03-25T05:22:21.000Z,88
2023-03-25T05:23:37.000Z,116
2023-03-25T05:24:53.000Z,140
2023-03-25T05:26:08.000Z,192
2023-03-25T05:27:24.000Z,240
2023-03-25T05:28:40.000Z,244
2023-03-25T05:29:57.000Z,320
2023-03-25T05:31:13.000Z,356
2023-03-25T05:32:29.000Z,312
2023-03-25T05:33:45.000Z,236
2023-03-25T05:35:01.000Z,216
2023-03-25T05:36:18.000Z,180
2023-03-25T05:37:34.000Z,156
2023-03-25T05:38:50.000Z,192
2023-03-25T05:40:06.000Z,164
2023-03-25T05:41:22.000Z,240
2023-03-25T05:42:38.000Z,344
2023-03-25T05:43:54.000Z,520
2023-03-25T05:45:10.000Z,596
2023-03-25T05:46:26.000Z,664
2023-03-25T05:47:42.000Z,716
2023-03-25T05:48:59.000Z,780
2023-03-25T05:50:15.000Z,832
2023-03-25T05:51:31.000Z,680
2023-03-25T05:52:47.000Z,656
2023-03-25T05:54:03.000Z,732
2023-03-25T05:55:19.000Z,916
2023-03-25T05:56:36.000Z,1056
2023-03-25T05:57:52.000Z,1284
2023-03-25T05:59:07.000Z,1432
2023-03-25T06:00:23.000Z,1788
2023-03-25T06:01:39.000Z,1620
2023-03-25T06:02:56.000Z,1364
2023-03-25T06:04:12.000Z,1204
2023-03-25T06:05:28.000Z,1200
2023-03-25T06:06:44.000Z,1292
2023-03-25T06:08:00.000Z,1384
2023-03-25T06:09:17.000Z,1348
2023-03-25T06:10:33.000Z,1296
2023-03-25T06:11:49.000Z,856
2023-03-25T06:13:05.000Z,1064
2023-03-25T06:14:21.000Z,1408
2023-03-25T06:15:37.000Z,2512
2023-03-25T06:16:53.000Z,1460
2023-03-25T06:18:09.000Z,1688
2023-03-25T06:19:25.000Z,2132
2023-03-25T06:20:41.000Z,2936
2023-03-25T06:21:57.000Z,2652
2023-03-25T06:23:14.000Z,2580
2023-03-25T06:24:30.000Z,3364
2023-03-25T06:25:46.000Z,3760
2023-03-25T06:27:02.000Z,5628
2023-03-25T06:28:18.000Z,5424
2023-03-25T06:29:35.000Z,4620
2023-03-25T06:30:51.000Z,5088
2023-03-25T06:32:06.000Z,3532
2023-03-25T06:33:22.000Z,3900
2023-03-25T06:34:38.000Z,3920
2023-03-25T06:35:55.000Z,3244
2023-03-25T06:37:11.000Z,3924
2023-03-25T06:38:27.000Z,3188
2023-03-25T06:39:43.000Z,2808
2023-03-25T06:40:59.000Z,3416
2023-03-25T06:42:16.000Z,3648
2023-03-25T06:43:32.000Z,2984
2023-03-25T06:44:48.000Z,2680
2023-03-25T06:46:04.000Z,3496
2023-03-25T06:47:20.000Z,4592
2023-03-25T06:48:35.000Z,2836
2023-03-25T06:49:52.000Z,2896
2023-03-25T06:51:08.000Z,2880
2023-03-25T06:52:24.000Z,2912
2023-03-25T06:53:40.000Z,3256
2023-03-25T06:54:56.000Z,3208
2023-03-25T06:56:13.000Z,2072
2023-03-25T06:57:29.000Z,1504
2023-03-25T06:58:45.000Z,1020
2023-03-25T07:00:01.000Z,1316
2023-03-25T07:01:17.000Z,1728
2023-03-25T07:02:34.000Z,2556
2023-03-25T07:03:50.000Z,3032
2023-03-25T07:05:05.000Z,3052
2023-03-25T07:06:21.000Z,3404
2023-03-25T07:07:37.000Z,4272
2023-03-25T07:08:54.000Z,4840
2023-03-25T07:10:10.000Z,6612
2023-03-25T07:11:26.000Z,7124
2023-03-25T07:12:42.000Z,4408
2023-03-25T07:13:58.000Z,3216
2023-03-25T07:15:14.000Z,4284
2023-03-25T07:16:31.000Z,5108
2023-03-25T07:17:47.000Z,4320
2023-03-25T07:19:03.000Z,5404
2023-03-25T07:20:19.000Z,4368
2023-03-25T07:21:34.000Z,3688
2023-03-25T07:22:51.000Z,4244
2023-03-25T07:24:07.000Z,5032
2023-03-25T07:25:23.000Z,6044
2023-03-25T07:26:39.000Z,5448
2023-03-25T07:27:55.000Z,6056
2023-03-25T07:29:12.000Z,5432
2023-03-25T07:30:28.000Z,6124
2023-03-25T07:31:44.000Z,8432
2023-03-25T07:33:00.000Z,9540
2023-03-25T07:34:16.000Z,7956
2023-03-25T07:35:33.000Z,7812
2023-03-25T07:36:49.000Z,8756
2023-03-25T07:38:04.000Z,8300
2023-03-25T07:39:20.000Z,7652
2023-03-25T07:40:36.000Z,5696
2023-03-25T07:41:52.000Z,6516
2023-03-25T07:43:09.000Z,6908
2023-03-25T07:44:25.000Z,4120
2023-03-25T07:45:41.000Z,3488
2023-03-25T07:46:57.000Z,3504
2023-03-25T07:48:13.000Z,2252
2023-03-25T07:49:30.000Z,2168
2023-03-25T07:50:46.000Z,2304
2023-03-25T07:52:02.000Z,2388
2023-03-25T07:53:18.000Z,2296
2023-03-25T07:54:33.000Z,3060
2023-03-25T07:55:50.000Z,3108
2023-03-25T07:57:06.000Z,2916
2023-03-25T07:58:22.000Z,3588
2023-03-25T07:59:38.000Z,3636
2023-03-25T08:00:54.000Z,4212
2023-03-25T08:02:11.000Z,5496
2023-03-25T08:03:27.000Z,5608
2023-03-25T08:04:43.000Z,5804
2023-03-25T08:05:59.000Z,4500
2023-03-25T08:07:15.000Z,4244
2023-03-25T08:08:31.000Z,3040
2023-03-25T08:09:48.000Z,3612
2023-03-25T08:11:03.000Z,3300
2023-03-25T08:12:19.000Z,3564
2023-03-25T08:13:35.000Z,4532
2023-03-25T08:14:51.000Z,5008
2023-03-25T08:16:08.000Z,4444
2023-03-25T08:17:24.000Z,3744
2023-03-25T08:18:40.000Z,4308
2023-03-25T08:19:56.000Z,4684
2023-03-25T08:21:12.000Z,4788
2023-03-25T08:22:29.000Z,5832
2023-03-25T08:23:45.000Z,6936
2023-03-25T08:25:01.000Z,6076
2023-03-25T08:26:17.000Z,5716
2023-03-25T08:27:32.000Z,6380
2023-03-25T08:28:49.000Z,8788
2023-03-25T08:30:05.000Z,8260
2023-03-25T08:31:21.000Z,9280
2023-03-25T08:32:37.000Z,9888
2023-03-25T08:33:53.000Z,9860
2023-03-25T08:35:09.000Z,8736
2023-03-25T08:36:26.000Z,7884
2023-03-25T08:37:42.000Z,10340
2023-03-25T08:38:58.000Z,9876
2023-03-25T08:40:14.000Z,8728
2023-03-25T08:41:30.000Z,9144
2023-03-25T08:42:47.000Z,10620
2023-03-25T08:44:02.000Z,16088
2023-03-25T08:45:18.000Z,14624
2023-03-25T08:46:34.000Z,10932
2023-03-25T08:47:50.000Z,12304
2023-03-25T08:49:07.000Z,15084
2023-03-25T08:50:23.000Z,16484
2023-03-25T08:51:38.000Z,14944
2023-03-25T08:52:54.000Z,13112
2023-03-25T08:54:10.000Z,11584
2023-03-25T08:55:27.000Z,8896
2023-03-25T08:56:43.000Z,9732
2023-03-25T08:57:59.000Z,10560
2023-03-25T08:59:15.000Z,10516
2023-03-25T09:00:31.000Z,9956
2023-03-25T09:01:47.000Z,7024
2023-03-25T09:03:04.000Z,7788
2023-03-25T09:04:20.000Z,8764
2023-03-25T09:05:36.000Z,8840
2023-03-25T09:06:52.000Z,8868
2023-03-25T09:08:07.000Z,8152
2023-03-25T09:09:24.000Z,7564
2023-03-25T09:10:40.000Z,8024
2023-03-25T09:11:56.000Z,8748
2023-03-25T09:13:12.000Z,9076
2023-03-25T09:14:28.000Z,9416
2023-03-25T09:15:45.000Z,8256
2023-03-25T09:17:01.000Z,7620
2023-03-25T09:18:17.000Z,9476
2023-03-25T09:19:33.000Z,8220
2023-03-25T09:20:49.000Z,10376
2023-03-25T09:22:06.000Z,9592
2023-03-25T09:23:22.000Z,10200
2023-03-25T09:24:37.000Z,8920
2023-03-25T09:25:53.000Z,9100
2023-03-25T09:27:09.000Z,10300
2023-03-25T09:28:25.000Z,12140
2023-03-25T09:29:42.000Z,12128
2023-03-25T09:30:58.000Z,11216
2023-03-25T09:32:14.000Z,6952
2023-03-25T09:33:30.000Z,8492
2023-03-25T09:34:46.000Z,5984
2023-03-25T09:36:03.000Z,7588
2023-03-25T09:37:19.000Z,8092
2023-03-25T09:38:35.000Z,6424
2023-03-25T09:39:51.000Z,6516
2023-03-25T09:41:06.000Z,8780
2023-03-25T09:42:23.000Z,9864
2023-03-25T09:43:39.000Z,10836
2023-03-25T09:44:55.000Z,14548
2023-03-25T09:46:11.000Z,11160
2023-03-25T09:47:27.000Z,13204
2023-03-25T09:48:44.000Z,13220
2023-03-25T09:50:00.000Z,12312
2023-03-25T09:51:16.000Z,15336
2023-03-25T09:52:32.000Z,14540
2023-03-25T09:53:48.000Z,13072
2023-03-25T09:55:04.000Z,14380
2023-03-25T09:56:21.000Z,15212
2023-03-25T09:57:36.000Z,17472
2023-03-25T09:58:52.000Z,16680
2023-03-25T10:00:08.000Z,15964
2023-03-25T10:01:24.000Z,13072
2023-03-25T10:02:41.000Z,13440
2023-03-25T10:03:57.000Z,11644
2023-03-25T10:05:13.000Z,15208
2023-03-25T10:06:29.000Z,14220
2023-03-25T10:07:45.000Z,11136
2023-03-25T10:09:02.000Z,14212
2023-03-25T10:10:18.000Z,12644
2023-03-25T10:11:34.000Z,9412
2023-03-25T10:12:50.000Z,10916
2023-03-25T10:14:05.000Z,12828
2023-03-25T10:15:22.000Z,11528
2023-03-25T10:16:38.000Z,11648
2023-03-25T10:17:54.000Z,12800
2023-03-25T10:19:10.000Z,10788
2023-03-25T10:20:26.000Z,10920
2023-03-25T10:21:42.000Z,9808
2023-03-25T10:22:59.000Z,8228
2023-03-25T10:24:15.000Z,6612
2023-03-25T10:25:31.000Z,7284
2023-03-25T10:26:47.000Z,7556
2023-03-25T10:28:03.000Z,10552
2023-03-25T10:29:20.000Z,9916
2023-03-25T10:30:35.000Z,9884
2023-03-25T10:31:51.000Z,9692
2023-03-25T10:33:07.000Z,9856
2023-03-25T10:34:23.000Z,7280
2023-03-25T10:35:40.000Z,7476
2023-03-25T10:36:56.000Z,8284
2023-03-25T10:38:12.000Z,11756
2023-03-25T10:39:28.000Z,12148
2023-03-25T10:40:44.000Z,14420
2023-03-25T10:42:00.000Z,9932
2023-03-25T10:43:17.000Z,12768
2023-03-25T10:44:33.000Z,42496
2023-03-25T10:45:49.000Z,25376
2023-03-25T10:47:04.000Z,16072
2023-03-25T10:48:20.000Z,32768
2023-03-25T10:49:37.000Z,28192
2023-03-25T10:50:53.000Z,27712
2023-03-25T10:52:09.000Z,16644
2023-03-25T10:53:25.000Z,54912
2023-03-25T10:54:41.000Z,15736
2023-03-25T10:55:58.000Z,25184
2023-03-25T10:57:14.000Z,38240
2023-03-25T10:58:30.000Z,27232
2023-03-25T10:59:46.000Z,13552
2023-03-25T11:01:02.000Z,10464
2023-03-25T11:02:19.000Z,12900
2023-03-25T11:03:34.000Z,7516
2023-03-25T11:04:50.000Z,8088
2023-03-25T11:06:06.000Z,7676
2023-03-25T11:07:22.000Z,6400
2023-03-25T11:08:38.000Z,9008
2023-03-25T11:09:55.000Z,9932
2023-03-25T11:11:11.000Z,11008
2023-03-25T11:12:27.000Z,10096
2023-03-25T11:13:43.000Z,11996
2023-03-25T11:14:59.000Z,10456
2023-03-25T11:16:16.000Z,11336
2023-03-25T11:17:32.000Z,16420
2023-03-25T11:18:48.000Z,18688
2023-03-25T11:20:03.000Z,14816
2023-03-25T11:21:19.000Z,12900
2023-03-25T11:22:36.000Z,12728
2023-03-25T11:23:52.000Z,14008
2023-03-25T11:25:08.000Z,13364
2023-03-25T11:26:24.000Z,15696
2023-03-25T11:27:40.000Z,15384
2023-03-25T11:28:57.000Z,14056
2023-03-25T11:30:13.000Z,11688
2023-03-25T11:31:29.000Z,7812
2023-03-25T11:32:45.000Z,8088
2023-03-25T11:34:01.000Z,14132
2023-03-25T11:35:17.000Z,14512
2023-03-25T11:36:33.000Z,13380
2023-03-25T11:37:49.000Z,12588
2023-03-25T11:39:05.000Z,11480
2023-03-25T11:40:21.000Z,8972
2023-03-25T11:41:37.000Z,7964
2023-03-25T11:42:54.000Z,7084
2023-03-25T11:44:10.000Z,8444
2023-03-25T11:45:26.000Z,6948
2023-03-25T11:46:42.000Z,3988
2023-03-25T11:47:58.000Z,3156
2023-03-25T11:49:15.000Z,3076
2023-03-25T11:50:31.000Z,3008
2023-03-25T11:51:47.000Z,2788
2023-03-25T11:53:02.000Z,3396
2023-03-25T11:54:18.000Z,3728
2023-03-25T11:55:35.000Z,2932
2023-03-25T11:56:51.000Z,2128
2023-03-25T11:58:07.000Z,2116
2023-03-25T11:59:23.000Z,2484
2023-03-25T12:00:39.000Z,4496
2023-03-25T12:01:55.000Z,8884
2023-03-25T12:03:12.000Z,10056
2023-03-25T12:04:28.000Z,16132
2023-03-25T12:05:44.000Z,18784
2023-03-25T12:07:00.000Z,18112
2023-03-25T12:08:16.000Z,21472
2023-03-25T12:09:32.000Z,63712
2023-03-25T12:10:48.000Z,20256
2023-03-25T12:12:04.000Z,13440
2023-03-25T12:13:20.000Z,14440
2023-03-25T12:14:36.000Z,16476
2023-03-25T12:15:53.000Z,18880
2023-03-25T12:17:09.000Z,18528
2023-03-25T12:18:25.000Z,67200
2023-03-25T12:19:41.000Z,57504
2023-03-25T12:20:57.000Z,71904
2023-03-25T12:22:14.000Z,36320
2023-03-25T12:23:30.000Z,28576
2023-03-25T12:24:46.000Z,43520
2023-03-25T12:26:01.000Z,39296
2023-03-25T12:27:17.000Z,42112
2023-03-25T12:28:33.000Z,23040
2023-03-25T12:29:50.000Z,29696
2023-03-25T12:31:06.000Z,33312
2023-03-25T12:32:22.000Z,35776
2023-03-25T12:33:38.000Z,24192
2023-03-25T12:34:54.000Z,18880
2023-03-25T12:36:11.000Z,16592
2023-03-25T12:37:27.000Z,15684
2023-03-25T12:38:43.000Z,14744
2023-03-25T12:39:59.000Z,13780
2023-03-25T12:41:15.000Z,12664
2023-03-25T12:42:31.000Z,11772
2023-03-25T12:43:47.000Z,11244
2023-03-25T12:45:03.000Z,10632
2023-03-25T12:46:19.000Z,10272
2023-03-25T12:47:35.000Z,10128
2023-03-25T12:48:52.000Z,10120
2023-03-25T12:50:08.000Z,9744
2023-03-25T12:51:24.000Z,9432
2023-03-25T12:52:40.000Z,9076
2023-03-25T12:53:56.000Z,9012
2023-03-25T12:55:13.000Z,9092
2023-03-25T12:56:29.000Z,10456
2023-03-25T12:57:45.000Z,25952
2023-03-25T12:59:00.000Z,59616
2023-03-25T13:00:16.000Z,59328
2023-03-25T13:01:32.000Z,18624
2023-03-25T13:02:49.000Z,29024
2023-03-25T13:04:05.000Z,31360
2023-03-25T13:05:21.000Z,22816
2023-03-25T13:06:36.000Z,45664
2023-03-25T13:07:52.000Z,15780
2023-03-25T13:09:09.000Z,8656
2023-03-25T13:10:25.000Z,8612
2023-03-25T13:11:41.000Z,11432
2023-03-25T13:12:57.000Z,40128
2023-03-25T13:14:13.000Z,40032
2023-03-25T13:15:30.000Z,13812
2023-03-25T13:16:46.000Z,54080
2023-03-25T13:18:02.000Z,13788
2023-03-25T13:19:18.000Z,13368
2023-03-25T13:20:34.000Z,12568
2023-03-25T13:21:51.000Z,13764
2023-03-25T13:23:06.000Z,9784
2023-03-25T13:24:22.000Z,4176
2023-03-25T13:25:38.000Z,5780
2023-03-25T13:26:54.000Z,5200
2023-03-25T13:28:11.000Z,3932
2023-03-25T13:29:27.000Z,5372
2023-03-25T13:30:43.000Z,9532
2023-03-25T13:31:59.000Z,14408
2023-03-25T13:33:15.000Z,7588
2023-03-25T13:34:31.000Z,5840
2023-03-25T13:35:48.000Z,8276
2023-03-25T13:37:04.000Z,7008
2023-03-25T13:38:20.000Z,7004
2023-03-25T13:39:35.000Z,8288
2023-03-25T13:40:51.000Z,9028
2023-03-25T13:42:08.000Z,10304
2023-03-25T13:43:24.000Z,26432
2023-03-25T13:44:40.000Z,20160
2023-03-25T13:45:56.000Z,24288
2023-03-25T13:47:12.000Z,23040
2023-03-25T13:48:29.000Z,17920
2023-03-25T13:49:45.000Z,24544
2023-03-25T13:51:01.000Z,12912
2023-03-25T13:52:17.000Z,10880
2023-03-25T13:53:33.000Z,10068
2023-03-25T13:54:50.000Z,8480
2023-03-25T13:56:05.000Z,13480
2023-03-25T13:57:21.000Z,15816
2023-03-25T13:58:37.000Z,27072
2023-03-25T13:59:53.000Z,8556
2023-03-25T14:01:09.000Z,6988
2023-03-25T14:02:26.000Z,5844
2023-03-25T14:03:42.000Z,5524
2023-03-25T14:04:58.000Z,5976
2023-03-25T14:06:14.000Z,6728
2023-03-25T14:07:30.000Z,6936
2023-03-25T14:08:47.000Z,6496
2023-03-25T14:10:03.000Z,7716
2023-03-25T14:11:19.000Z,7548
2023-03-25T14:12:34.000Z,6112
2023-03-25T14:13:50.000Z,6544
2023-03-25T14:15:07.000Z,6792
2023-03-25T14:16:23.000Z,4964
2023-03-25T14:17:39.000Z,5876
2023-03-25T14:18:55.000Z,8484
2023-03-25T14:20:11.000Z,7748
2023-03-25T14:21:28.000Z,5548
2023-03-25T14:22:44.000Z,5408
2023-03-25T14:24:00.000Z,5348
2023-03-25T14:25:16.000Z,4468
2023-03-25T14:26:32.000Z,4484
2023-03-25T14:27:48.000Z,4912
2023-03-25T14:29:04.000Z,5092
2023-03-25T14:30:20.000Z,5636
2023-03-25T14:31:36.000Z,7084
2023-03-25T14:32:52.000Z,8132
2023-03-25T14:34:08.000Z,4800
2023-03-25T14:35:25.000Z,4800
2023-03-25T14:36:41.000Z,6060
2023-03-25T14:37:57.000Z,6756
2023-03-25T14:39:13.000Z,8008
2023-03-25T14:40:29.000Z,8100
2023-03-25T14:41:46.000Z,5896
2023-03-25T14:43:02.000Z,4028
2023-03-25T14:44:18.000Z,3788
2023-03-25T14:45:33.000Z,5044
2023-03-25T14:46:49.000Z,5256
2023-03-25T14:48:06.000Z,4536
2023-03-25T14:49:22.000Z,4488
2023-03-25T14:50:38.000Z,3840
2023-03-25T14:51:54.000Z,3860
2023-03-25T14:53:10.000Z,3456
2023-03-25T14:54:27.000Z,1736
2023-03-25T14:55:43.000Z,1600
2023-03-25T14:56:59.000Z,3316
2023-03-25T14:58:15.000Z,7492
2023-03-25T14:59:31.000Z,10064
2023-03-25T15:00:47.000Z,12568
2023-03-25T15:02:03.000Z,13772
2023-03-25T15:03:19.000Z,19200
2023-03-25T15:04:35.000Z,11244
2023-03-25T15:05:51.000Z,13420
2023-03-25T15:07:07.000Z,11824
2023-03-25T15:08:24.000Z,11672
2023-03-25T15:09:40.000Z,19008
2023-03-25T15:10:56.000Z,15660
2023-03-25T15:12:12.000Z,11320
2023-03-25T15:13:28.000Z,14856
2023-03-25T15:14:45.000Z,8420
2023-03-25T15:16:01.000Z,13608
2023-03-25T15:17:17.000Z,15992
2023-03-25T15:18:32.000Z,14372
2023-03-25T15:19:48.000Z,12548
2023-03-25T15:21:05.000Z,12440
2023-03-25T15:22:21.000Z,14744
2023-03-25T15:23:37.000Z,14700
2023-03-25T15:24:53.000Z,12808
2023-03-25T15:26:09.000Z,14828
2023-03-25T15:27:26.000Z,9612
2023-03-25T15:28:42.000Z,12064
2023-03-25T15:29:58.000Z,7516
2023-03-25T15:31:14.000Z,5740
2023-03-25T15:32:30.000Z,4912
2023-03-25T15:33:46.000Z,4200
2023-03-25T15:35:02.000Z,4268
2023-03-25T15:36:18.000Z,3408
2023-03-25T15:37:34.000Z,2728
2023-03-25T15:38:50.000Z,2968
2023-03-25T15:40:06.000Z,3100
2023-03-25T15:41:23.000Z,2976
2023-03-25T15:42:39.000Z,3240
2023-03-25T15:43:55.000Z,3408
2023-03-25T15:45:11.000Z,3736
2023-03-25T15:46:27.000Z,3904
2023-03-25T15:47:44.000Z,3452
2023-03-25T15:49:00.000Z,2428
2023-03-25T15:50:16.000Z,1880
2023-03-25T15:51:31.000Z,1884
2023-03-25T15:52:47.000Z,1236
2023-03-25T15:54:04.000Z,1384
2023-03-25T15:55:20.000Z,1112
2023-03-25T15:56:36.000Z,812
2023-03-25T15:57:52.000Z,808
2023-03-25T15:59:08.000Z,612
2023-03-25T16:00:24.000Z,580
2023-03-25T16:01:41.000Z,476
2023-03-25T16:02:57.000Z,456
2023-03-25T16:04:13.000Z,456
2023-03-25T16:05:29.000Z,624
2023-03-25T16:06:45.000Z,1452
2023-03-25T16:08:01.000Z,2424
2023-03-25T16:09:17.000Z,4008
2023-03-25T16:10:33.000Z,5204
2023-03-25T16:11:49.000Z,3408
2023-03-25T16:13:05.000Z,3344
2023-03-25T16:14:22.000Z,3548
2023-03-25T16:15:38.000Z,2948
2023-03-25T16:16:54.000Z,3552
2023-03-25T16:18:10.000Z,4760
2023-03-25T16:19:26.000Z,5016
2023-03-25T16:20:43.000Z,4316
2023-03-25T16:21:59.000Z,3668
2023-03-25T16:23:15.000Z,3436
2023-03-25T16:24:30.000Z,2996
2023-03-25T16:25:46.000Z,2876
2023-03-25T16:27:03.000Z,4140
2023-03-25T16:28:19.000Z,4408
2023-03-25T16:29:35.000Z,3912
2023-03-25T16:30:51.000Z,3792
2023-03-25T16:32:07.000Z,3892
2023-03-25T16:33:23.000Z,3948
2023-03-25T16:34:40.000Z,3732
2023-03-25T16:35:56.000Z,3436
2023-03-25T16:37:12.000Z,3232
2023-03-25T16:38:28.000Z,3056
2023-03-25T16:39:44.000Z,3008
2023-03-25T16:41:00.000Z,3048
2023-03-25T16:42:16.000Z,2844
2023-03-25T16:43:32.000Z,2776
2023-03-25T16:44:48.000Z,2924
2023-03-25T16:46:04.000Z,2936
2023-03-25T16:47:21.000Z,2868
2023-03-25T16:48:37.000Z,2712
2023-03-25T16:49:53.000Z,2392
2023-03-25T16:51:09.000Z,2000
2023-03-25T16:52:25.000Z,1700
2023-03-25T16:53:42.000Z,1536
2023-03-25T16:54:58.000Z,1424
2023-03-25T16:56:14.000Z,1264
2023-03-25T16:57:29.000Z,1080
2023-03-25T16:58:45.000Z,892
2023-03-25T17:00:02.000Z,716
2023-03-25T17:01:18.000Z,580
2023-03-25T17:02:34.000Z,484
2023-03-25T17:03:50.000Z,384
2023-03-25T17:05:06.000Z,284
2023-03-25T17:06:22.000Z,212
2023-03-25T17:07:39.000Z,148
2023-03-25T17:08:55.000Z,96
2023-03-25T17:10:11.000Z,56
2023-03-25T17:11:27.000Z,40
2023-03-25T17:12:43.000Z,40
2023-03-25T17:13:59.000Z,44
2023-03-25T17:15:15.000Z,44
2023-03-25T17:16:31.000Z,44
2023-03-25T17:17:47.000Z,44
2023-03-25T17:19:03.000Z,48
2023-03-25T17:20:20.000Z,60